createdAt,value
2019-03-29T00:00:44.334Z,15.00
2019-03-29T00:03:15.596Z,12.80
2019-03-29T00:05:46.771Z,16.90
2019-03-29T00:08:17.938Z,13.97
2019-03-29T00:10:49.178Z,13.53
2019-03-29T00:13:20.386Z,13.33
2019-03-29T00:15:51.629Z,12.90
2019-03-29T00:18:22.826Z,14.07
2019-03-29T00:20:54.067Z,12.87
2019-03-29T00:23:25.258Z,16.00
2019-03-29T00:25:56.606Z,14.80
2019-03-29T00:28:27.814Z,16.80
2019-03-29T00:30:58.986Z,12.30
2019-03-29T00:33:30.259Z,16.03
2019-03-29T00:36:01.499Z,14.70
2019-03-29T00:38:32.760Z,15.10
2019-03-29T00:41:03.927Z,15.50
2019-03-29T00:43:35.179Z,13.90
2019-03-29T00:46:06.281Z,13.77
2019-03-29T00:48:37.485Z,14.40
2019-03-29T00:51:08.664Z,13.47
2019-03-29T00:53:40.895Z,14.47
2019-03-29T00:56:13.020Z,12.97
2019-03-29T00:58:44.268Z,14.50
2019-03-29T01:01:15.449Z,12.87
2019-03-29T01:03:46.660Z,13.20
2019-03-29T01:06:17.833Z,15.77
2019-03-29T01:08:48.947Z,14.60
2019-03-29T01:11:20.107Z,14.07
2019-03-29T01:13:51.284Z,13.77
2019-03-29T01:16:22.458Z,16.03
2019-03-29T01:18:53.638Z,15.87
2019-03-29T01:21:24.808Z,14.27
2019-03-29T01:23:55.928Z,12.90
2019-03-29T01:26:27.227Z,14.40
2019-03-29T01:28:58.641Z,16.60
2019-03-29T01:31:29.737Z,13.60
2019-03-29T01:34:00.913Z,12.67
2019-03-29T01:36:31.992Z,14.67
2019-03-29T01:39:04.251Z,11.50
2019-03-29T01:41:35.407Z,15.63
2019-03-29T01:44:06.533Z,16.30
2019-03-29T01:46:38.777Z,13.70
2019-03-29T01:49:09.900Z,14.53
2019-03-29T01:51:41.051Z,13.10
2019-03-29T01:54:12.309Z,13.17
2019-03-29T01:56:43.437Z,11.37
2019-03-29T01:59:14.622Z,14.30
2019-03-29T02:01:45.793Z,12.30
2019-03-29T02:04:17.027Z,13.63
2019-03-29T02:06:48.180Z,13.27
2019-03-29T02:09:19.382Z,13.03
2019-03-29T02:11:50.461Z,13.73
2019-03-29T02:14:21.779Z,15.67
2019-03-29T02:16:52.926Z,18.20
2019-03-29T02:19:24.105Z,16.13
2019-03-29T02:21:55.213Z,14.23
2019-03-29T02:24:26.461Z,14.03
2019-03-29T02:26:57.706Z,15.10
2019-03-29T02:29:28.898Z,15.07
2019-03-29T02:32:00.083Z,14.90
2019-03-29T02:34:31.244Z,13.40
2019-03-29T02:37:02.717Z,14.57
2019-03-29T02:39:35.060Z,15.27
2019-03-29T02:42:06.217Z,15.60
2019-03-29T02:44:37.466Z,16.13
2019-03-29T02:47:08.554Z,13.23
2019-03-29T02:49:40.485Z,14.87
2019-03-29T02:52:11.855Z,14.07
2019-03-29T02:54:43.199Z,15.07
2019-03-29T02:57:14.371Z,14.20
2019-03-29T02:59:45.550Z,14.53
2019-03-29T03:02:16.820Z,17.43
2019-03-29T03:04:48.084Z,12.80
2019-03-29T03:07:19.329Z,15.03
2019-03-29T03:09:50.509Z,13.33
2019-03-29T03:12:21.685Z,11.63
2019-03-29T03:14:52.851Z,10.63
2019-03-29T03:17:24.222Z,13.00
2019-03-29T03:19:55.468Z,12.50
2019-03-29T03:22:26.630Z,14.90
2019-03-29T03:24:57.831Z,15.27
2019-03-29T03:27:29.091Z,15.63
2019-03-29T03:30:00.486Z,16.70
2019-03-29T03:32:31.968Z,17.33
2019-03-29T03:35:03.214Z,16.93
2019-03-29T03:37:34.453Z,12.50
2019-03-29T03:40:06.599Z,14.67
2019-03-29T03:42:37.767Z,15.40
2019-03-29T03:45:09.575Z,12.03
2019-03-29T03:47:40.838Z,12.23
2019-03-29T03:50:29.091Z,17.67
2019-03-29T03:53:00.261Z,13.30
2019-03-29T03:55:32.137Z,14.03
2019-03-29T03:58:05.203Z,15.63
2019-03-29T04:00:56.511Z,17.03
2019-03-29T04:03:28.533Z,17.23
2019-03-29T04:05:59.901Z,16.90
2019-03-29T04:08:31.053Z,18.33
2019-03-29T04:11:02.293Z,18.73
2019-03-29T04:13:33.418Z,14.77
2019-03-29T04:16:04.581Z,18.43
2019-03-29T04:18:35.740Z,17.20
2019-03-29T04:21:07.006Z,18.70
2019-03-29T04:23:38.243Z,15.90
2019-03-29T04:26:09.431Z,13.90
2019-03-29T04:28:40.667Z,19.67
2019-03-29T04:31:11.921Z,15.33
2019-03-29T06:24:41.679Z,24.97
2019-03-29T06:27:12.870Z,18.83
2019-03-29T06:29:44.115Z,18.23
2019-03-29T06:32:15.386Z,16.37
2019-03-29T06:34:46.642Z,16.57
2019-03-29T06:37:19.199Z,18.70
2019-03-29T06:39:52.857Z,20.60
2019-03-29T06:42:25.134Z,19.07
2019-03-29T06:44:56.369Z,20.87
2019-03-29T06:47:27.549Z,18.57
2019-03-29T06:49:58.743Z,19.97
2019-03-29T06:52:29.935Z,20.97
2019-03-29T06:55:01.121Z,20.03
2019-03-29T06:57:32.391Z,21.40
2019-03-29T07:00:04.554Z,21.00
2019-03-29T07:02:35.781Z,21.00
2019-03-29T07:05:07.002Z,23.73
2019-03-29T07:07:38.201Z,21.23
2019-03-29T07:10:09.487Z,21.60
2019-03-29T07:12:40.687Z,17.73
2019-03-29T07:15:11.926Z,21.03
2019-03-29T07:17:43.184Z,23.47
2019-03-29T07:20:14.462Z,24.13
2019-03-29T07:22:46.022Z,22.73
2019-03-29T07:25:17.230Z,22.60
2019-03-29T07:27:52.236Z,22.70
2019-03-29T07:30:21.356Z,22.70
2019-03-29T07:32:52.715Z,23.93
2019-03-29T07:35:23.969Z,23.17
2019-03-29T07:37:55.244Z,22.40
2019-03-29T07:40:26.515Z,22.53
2019-03-29T07:42:58.081Z,23.03
2019-03-29T07:45:29.519Z,26.30
2019-03-29T07:48:00.723Z,23.70
2019-03-29T07:50:31.912Z,23.70
2019-03-29T07:53:03.194Z,20.57
2019-03-29T07:55:37.081Z,19.63
2019-03-29T07:58:07.352Z,22.13
2019-03-29T08:00:38.614Z,18.80
2019-03-29T08:03:09.819Z,20.77
2019-03-29T08:05:41.009Z,24.23
2019-03-29T08:08:23.245Z,20.60
2019-03-29T08:10:46.031Z,22.30
2019-03-29T08:13:17.345Z,18.73
2019-03-29T08:15:51.897Z,18.80
2019-03-29T08:18:23.186Z,18.83
2019-03-29T08:20:54.429Z,17.07
2019-03-29T08:23:28.689Z,16.70
2019-03-29T08:25:58.605Z,17.30
2019-03-29T08:28:29.884Z,17.60
2019-03-29T08:31:00.979Z,18.00
2019-03-29T08:33:33.310Z,18.13
2019-03-29T08:36:04.565Z,18.90
2019-03-29T08:38:35.791Z,16.70
2019-03-29T08:41:07.060Z,19.30
2019-03-29T08:43:38.234Z,18.40
2019-03-29T08:46:09.441Z,19.07
2019-03-29T08:48:40.720Z,17.17
2019-03-29T08:51:12.032Z,12.43
2019-03-29T08:53:43.367Z,15.03
2019-03-29T08:56:14.611Z,17.13
2019-03-29T08:58:46.682Z,13.63
2019-03-29T09:01:19.900Z,15.23
2019-03-29T09:04:04.743Z,15.43
2019-03-29T09:06:24.226Z,13.80
2019-03-29T09:08:55.489Z,13.43
2019-03-29T09:11:26.689Z,13.57
2019-03-29T09:13:57.939Z,14.77
2019-03-29T09:16:29.121Z,12.30
2019-03-29T09:19:00.392Z,10.47
2019-03-29T09:21:31.637Z,11.77
2019-03-29T09:24:02.911Z,10.57
2019-03-29T09:26:34.152Z,12.17
2019-03-29T09:29:05.416Z,11.47
2019-03-29T09:31:36.648Z,11.50
2019-03-29T09:34:07.909Z,11.40
2019-03-29T09:36:38.986Z,11.30
2019-03-29T09:39:10.249Z,10.10
2019-03-29T09:41:41.493Z,11.90
2019-03-29T09:44:12.681Z,11.87
2019-03-29T09:46:43.864Z,12.60
2019-03-29T09:49:15.059Z,9.93
2019-03-29T09:51:46.302Z,11.67
2019-03-29T09:54:20.275Z,11.60
2019-03-29T09:56:50.426Z,12.50
2019-03-29T09:59:23.159Z,12.70
2019-03-29T10:01:54.563Z,9.83
2019-03-29T10:04:25.784Z,10.30
2019-03-29T10:06:56.940Z,9.67
2019-03-29T10:09:28.189Z,9.47
2019-03-29T10:11:59.421Z,9.23
2019-03-29T10:14:33.258Z,8.67
2019-03-29T10:17:03.592Z,9.17
2019-03-29T10:19:38.669Z,9.27
2019-03-29T10:22:09.918Z,9.20
2019-03-29T10:24:41.166Z,8.43
2019-03-29T10:27:12.405Z,9.90
2019-03-29T10:29:43.587Z,7.70
2019-03-29T10:32:14.737Z,7.17
2019-03-29T10:34:45.920Z,9.30
2019-03-29T10:37:17.139Z,7.40
2019-03-29T10:39:49.285Z,7.57
2019-03-29T10:42:20.527Z,7.37
2019-03-29T10:44:51.710Z,7.77
2019-03-29T10:47:22.957Z,7.23
2019-03-29T10:49:54.267Z,6.90
2019-03-29T10:52:25.495Z,6.13
2019-03-29T10:54:56.743Z,10.60
2019-03-29T10:57:27.902Z,6.73
2019-03-29T10:59:59.110Z,6.20
2019-03-29T11:02:30.340Z,6.20
2019-03-29T11:05:01.598Z,5.53
2019-03-29T11:07:32.845Z,7.70
2019-03-29T11:10:04.144Z,6.00
2019-03-29T11:12:35.302Z,5.57
2019-03-29T11:15:07.159Z,5.60
2019-03-29T11:17:38.485Z,5.70
2019-03-29T11:20:10.750Z,5.10
2019-03-29T11:22:41.980Z,4.30
2019-03-29T11:25:13.170Z,5.33
2019-03-29T11:27:44.402Z,4.90
2019-03-29T11:30:15.633Z,4.80
2019-03-29T11:32:46.798Z,4.70
2019-03-29T11:35:18.278Z,4.83
2019-03-29T11:37:49.526Z,5.83
2019-03-29T11:40:20.814Z,4.93
2019-03-29T11:42:51.989Z,5.53
2019-03-29T11:45:23.247Z,5.93
2019-03-29T11:48:07.343Z,5.40
2019-03-29T11:50:29.052Z,5.20
2019-03-29T11:52:59.380Z,4.13
2019-03-29T11:55:30.485Z,4.70
2019-03-29T11:58:01.682Z,5.50
2019-03-29T12:00:37.082Z,5.90
2019-03-29T12:03:09.367Z,6.10
2019-03-29T12:05:41.029Z,6.00
2019-03-29T12:08:12.287Z,5.30
2019-03-29T12:10:43.562Z,4.33
2019-03-29T12:13:14.812Z,5.37
2019-03-29T12:15:46.259Z,5.73
2019-03-29T12:18:17.584Z,7.50
2019-03-29T12:20:48.773Z,5.60
2019-03-29T12:23:20.011Z,6.07
2019-03-29T12:25:52.420Z,5.20
2019-03-29T12:28:23.660Z,4.87
2019-03-29T12:30:54.925Z,7.40
2019-03-29T12:33:26.161Z,5.90
2019-03-29T12:35:57.249Z,6.67
2019-03-29T12:38:28.494Z,7.77
2019-03-29T12:40:59.875Z,5.80
2019-03-29T12:43:31.117Z,7.13
2019-03-29T12:46:02.820Z,7.60
2019-03-29T12:48:34.060Z,6.83
2019-03-29T12:51:05.243Z,6.27
2019-03-29T12:53:36.489Z,5.97
2019-03-29T12:56:07.690Z,7.70
2019-03-29T12:58:38.860Z,7.07
2019-03-29T13:01:10.138Z,7.93
2019-03-29T13:03:41.503Z,7.13
2019-03-29T13:06:14.926Z,6.77
2019-03-29T13:08:46.142Z,6.70
2019-03-29T13:11:17.234Z,5.70
2019-03-29T13:13:48.472Z,8.00
2019-03-29T13:16:19.682Z,7.83
2019-03-29T13:18:53.555Z,7.83
2019-03-29T13:21:23.721Z,7.83
2019-03-29T13:23:54.898Z,8.00
2019-03-29T13:26:26.191Z,8.53
2019-03-29T13:28:57.362Z,7.80
2019-03-29T13:31:28.657Z,9.33
2019-03-29T13:33:59.938Z,9.50
2019-03-29T13:36:31.125Z,9.47
2019-03-29T13:39:02.382Z,8.77
2019-03-29T13:41:34.200Z,8.57
2019-03-29T13:44:05.414Z,8.40
2019-03-29T13:46:36.689Z,12.10
2019-03-29T13:49:07.847Z,7.50
2019-03-29T13:51:39.228Z,10.30
2019-03-29T13:54:10.481Z,8.80
2019-03-29T13:56:42.566Z,10.87
2019-03-29T13:59:13.844Z,7.93
2019-03-29T14:01:45.108Z,9.10
2019-03-29T14:04:16.301Z,10.20
2019-03-29T14:06:47.491Z,10.70
2019-03-29T14:09:18.738Z,9.87
2019-03-29T14:11:50.006Z,10.13
2019-03-29T14:14:21.251Z,9.10
2019-03-29T14:16:52.430Z,9.50
2019-03-29T14:19:25.781Z,11.33
2019-03-29T14:21:56.590Z,10.37
2019-03-29T14:24:27.773Z,8.27
2019-03-29T14:26:58.949Z,9.30
2019-03-29T14:29:30.137Z,12.23
2019-03-29T14:32:01.438Z,11.03
2019-03-29T14:34:32.593Z,9.70
2019-03-29T14:37:03.781Z,10.47
2019-03-29T14:39:34.948Z,9.10
2019-03-29T14:42:06.147Z,11.27
2019-03-29T14:44:51.454Z,9.30
2019-03-29T14:47:11.338Z,10.03
2019-03-29T14:49:42.573Z,12.20
2019-03-29T14:52:13.867Z,12.50
2019-03-29T14:54:45.056Z,11.70
2019-03-29T14:57:16.286Z,12.30
2019-03-29T14:59:47.529Z,10.97
2019-03-29T15:02:21.883Z,14.17
2019-03-29T15:04:50.655Z,13.10
2019-03-29T15:07:21.878Z,12.27
2019-03-29T15:09:53.766Z,11.27
2019-03-29T15:12:25.034Z,12.10
2019-03-29T15:15:06.127Z,11.90
2019-03-29T15:17:29.068Z,14.37
2019-03-29T15:20:00.265Z,14.07
2019-03-29T15:22:33.093Z,12.03
2019-03-29T15:25:04.668Z,12.97
2019-03-29T15:27:35.854Z,14.77
2019-03-29T15:30:07.458Z,12.13
2019-03-29T15:32:38.645Z,12.90
2019-03-29T15:35:10.819Z,14.23
2019-03-29T15:37:42.154Z,11.93
2019-03-29T15:40:13.338Z,14.10
2019-03-29T15:42:44.558Z,11.23
2019-03-29T15:45:20.655Z,13.60
2019-03-29T15:47:48.750Z,13.10
2019-03-29T15:50:19.905Z,14.90
2019-03-29T15:52:51.177Z,12.23
2019-03-29T15:55:22.445Z,11.40
2019-03-29T15:57:53.616Z,12.20
2019-03-29T16:00:24.862Z,10.57
2019-03-29T16:02:56.094Z,12.70
2019-03-29T16:05:27.259Z,11.40
2019-03-29T16:07:58.517Z,11.80
2019-03-29T16:10:29.766Z,10.70
2019-03-29T16:13:00.967Z,10.90
2019-03-29T16:15:36.389Z,12.67
2019-03-29T16:18:04.925Z,12.23
2019-03-29T16:20:36.180Z,10.40
2019-03-29T16:23:07.441Z,13.20
2019-03-29T16:25:38.790Z,12.57
2019-03-29T16:28:10.945Z,13.30
2019-03-29T16:30:42.191Z,13.97
2019-03-29T16:33:13.461Z,11.93
2019-03-29T16:35:44.557Z,15.20
2019-03-29T16:38:15.763Z,12.53
2019-03-29T16:40:46.917Z,11.47
2019-03-29T16:43:18.182Z,12.57
2019-03-29T16:45:50.301Z,11.87
2019-03-29T16:48:21.598Z,12.20
2019-03-29T16:50:52.829Z,12.23
2019-03-29T16:53:24.013Z,10.60
2019-03-29T16:55:55.106Z,13.13
2019-03-29T16:58:26.368Z,12.17
2019-03-29T17:00:57.619Z,13.70
2019-03-29T17:03:28.784Z,9.83
2019-03-29T17:05:59.988Z,12.13
2019-03-29T17:08:31.236Z,12.03
2019-03-29T17:11:02.345Z,11.50
2019-03-29T17:13:33.604Z,13.40
2019-03-29T17:16:04.978Z,13.73
2019-03-29T17:18:36.302Z,11.93
2019-03-29T17:21:07.642Z,14.10
2019-03-29T17:23:39.981Z,15.73
2019-03-29T17:26:11.234Z,12.97
2019-03-29T17:28:42.423Z,18.80
2019-03-29T17:31:14.576Z,12.50
2019-03-29T17:33:46.736Z,13.57
2019-03-29T17:36:17.906Z,13.80
2019-03-29T17:38:49.166Z,13.00
2019-03-29T17:41:20.325Z,13.33
2019-03-29T17:43:51.444Z,14.50
2019-03-29T17:46:22.686Z,14.93
2019-03-29T17:48:53.950Z,13.60
2019-03-29T17:51:25.143Z,15.63
2019-03-29T17:53:56.337Z,29.17
2019-03-29T17:56:27.523Z,19.50
2019-03-29T17:58:58.795Z,15.70
2019-03-29T18:01:31.825Z,18.13
2019-03-29T18:04:03.082Z,30.37
2019-03-29T18:06:34.262Z,46.13
2019-03-29T18:09:07.675Z,56.40
2019-03-29T18:11:38.937Z,46.10
2019-03-29T18:14:10.213Z,42.10
2019-03-29T18:16:41.545Z,42.90
2019-03-29T18:19:13.122Z,35.77
2019-03-29T18:21:44.372Z,40.30
2019-03-29T18:24:15.555Z,25.80
2019-03-29T18:26:47.136Z,33.00
2019-03-29T18:29:18.386Z,21.37
2019-03-29T18:31:49.728Z,26.57
2019-03-29T18:34:21.007Z,29.90
2019-03-29T18:36:54.265Z,33.10
2019-03-29T18:39:26.903Z,33.83
2019-03-29T18:41:58.170Z,29.77
2019-03-29T18:44:29.433Z,31.07
2019-03-29T18:47:00.682Z,26.00
2019-03-29T18:49:31.870Z,32.23
2019-03-29T18:52:03.137Z,33.00
2019-03-29T18:54:34.262Z,25.43
2019-03-29T18:57:05.511Z,26.47
2019-03-29T18:59:36.769Z,25.23
2019-03-29T19:02:07.985Z,24.10
2019-03-29T19:04:39.104Z,21.50
2019-03-29T19:07:10.287Z,24.40
2019-03-29T19:09:41.483Z,23.73
2019-03-29T19:12:12.763Z,23.57
2019-03-29T19:14:44.100Z,22.47
2019-03-29T19:17:15.335Z,17.60
2019-03-29T19:19:46.635Z,15.97
2019-03-29T19:22:17.832Z,14.43
2019-03-29T19:24:49.133Z,15.30
2019-03-29T19:27:20.362Z,12.30
2019-03-29T19:29:52.577Z,14.10
2019-03-29T19:32:23.753Z,14.50
2019-03-29T19:34:54.931Z,16.03
2019-03-29T19:37:26.090Z,17.63
2019-03-29T19:39:57.395Z,13.13
2019-03-29T19:42:28.637Z,21.77
2019-03-29T19:44:59.809Z,20.43
2019-03-29T19:47:31.075Z,20.17
2019-03-29T19:50:02.241Z,16.30
2019-03-29T19:52:33.406Z,16.23
2019-03-29T19:55:04.855Z,15.80
2019-03-29T19:57:37.079Z,15.50
2019-03-29T20:00:10.042Z,15.53
2019-03-29T20:02:41.233Z,15.10
2019-03-29T20:05:26.653Z,16.90
2019-03-29T20:07:57.958Z,18.50
2019-03-29T20:10:29.206Z,17.83
2019-03-29T20:13:00.464Z,18.90
2019-03-29T20:15:31.670Z,14.60
2019-03-29T20:18:03.871Z,19.77
2019-03-29T20:20:35.184Z,15.33
2019-03-29T20:23:06.348Z,19.90
2019-03-29T20:25:37.683Z,14.70
2019-03-29T20:28:09.044Z,17.73
2019-03-29T20:30:40.238Z,14.77
2019-03-29T20:33:13.316Z,30.60
2019-03-29T20:35:44.291Z,18.77
2019-03-29T20:38:15.841Z,16.40
2019-03-29T20:40:47.101Z,14.40
2019-03-29T20:43:19.272Z,12.03
2019-03-29T20:45:50.458Z,13.90
2019-03-29T20:48:21.568Z,14.60
2019-03-29T20:50:52.738Z,14.40
2019-03-29T20:53:23.919Z,16.93
2019-03-29T20:55:58.214Z,19.80
2019-03-29T20:58:28.024Z,16.87
2019-03-29T21:00:59.310Z,18.03
2019-03-29T21:03:31.556Z,12.80
2019-03-29T21:06:03.815Z,28.90
2019-03-29T21:08:34.969Z,22.93
2019-03-29T21:11:06.225Z,15.53
2019-03-29T21:13:38.453Z,17.43
2019-03-29T21:16:09.808Z,20.13
2019-03-29T21:18:40.988Z,18.90
2019-03-29T21:21:12.106Z,17.20
2019-03-29T21:23:43.294Z,16.53
2019-03-29T21:26:14.472Z,22.97
2019-03-29T21:28:45.709Z,27.37
2019-03-29T21:31:16.896Z,31.20
2019-03-29T21:33:48.470Z,26.50
2019-03-29T21:36:20.290Z,29.83
2019-03-29T21:38:51.468Z,26.73
2019-03-29T21:41:22.660Z,23.13
2019-03-29T21:43:54.094Z,23.97
2019-03-29T21:46:25.558Z,24.50
2019-03-29T21:48:56.806Z,25.50
2019-03-29T21:51:28.146Z,27.20
2019-03-29T21:53:59.299Z,30.93
2019-03-29T21:56:30.625Z,21.63
2019-03-29T21:59:01.855Z,28.63
2019-03-29T22:01:33.179Z,24.77
2019-03-29T22:04:04.412Z,23.77
2019-03-29T22:06:35.733Z,22.40
2019-03-29T22:09:08.397Z,20.00
2019-03-29T22:11:39.705Z,20.17
2019-03-29T22:14:11.016Z,19.20
2019-03-29T22:16:43.454Z,22.87
2019-03-29T22:19:14.744Z,21.20
2019-03-29T22:21:46.051Z,19.87
2019-03-29T22:24:17.298Z,21.60
2019-03-29T22:26:48.546Z,19.87
2019-03-29T22:29:19.794Z,20.20
2019-03-29T22:31:50.976Z,20.93
2019-03-29T22:34:22.137Z,20.03
2019-03-29T22:36:53.242Z,22.63
2019-03-29T22:39:24.446Z,21.77
2019-03-29T22:41:55.715Z,25.10
2019-03-29T22:44:28.016Z,20.67
2019-03-29T22:46:59.217Z,20.93
2019-03-29T22:49:30.438Z,20.93
2019-03-29T22:52:01.626Z,19.40
2019-03-29T22:54:32.876Z,20.87
2019-03-29T22:57:04.062Z,20.63
2019-03-29T22:59:35.325Z,21.60
2019-03-29T23:02:06.816Z,23.90
2019-03-29T23:04:38.053Z,27.73
2019-03-29T23:07:09.288Z,17.60
2019-03-29T23:09:41.525Z,22.60
2019-03-29T23:12:12.649Z,18.20
2019-03-29T23:14:43.827Z,15.73
2019-03-29T23:17:15.099Z,23.77
2019-03-29T23:19:46.327Z,24.90
2019-03-29T23:22:17.603Z,22.07
2019-03-29T23:24:48.853Z,22.60
2019-03-29T23:27:20.058Z,20.67
2019-03-29T23:29:51.290Z,24.07
2019-03-29T23:32:21.620Z,19.63
2019-03-29T23:34:52.617Z,20.87
2019-03-29T23:37:23.793Z,23.53
2019-03-29T23:39:54.953Z,21.87
2019-03-29T23:42:26.149Z,23.17
2019-03-29T23:44:57.378Z,21.33
2019-03-29T23:47:28.635Z,23.17
2019-03-29T23:49:59.801Z,20.47
2019-03-29T23:52:30.986Z,27.27
2019-03-29T23:55:02.158Z,22.07
2019-03-29T23:57:33.281Z,25.53
